Time;durP1;ratioP1;P1;durP2;ratioP2;P2;SDS_P1;SDS_P2;PMS_P1;PMS_P2;Temp;Humidity;BMP_temperature;BMP_pressure;BME280_temperature;BME280_humidity;BME280_pressure;Samples;Min_cycle;Max_cycle;Signal;HPM_P1;HPM_P2
2022/12/05 00:01:48;;;;;;;10.27;7.72;;;16.10;61.60;;;;;;10563314;28;20110;-51
2022/12/05 00:06:49;;;;;;;12.18;8.55;;;16.10;61.60;;;;;;10557643;28;20119;-52
2022/12/05 00:11:49;;;;;;;9.65;7.53;;;16.10;61.50;;;;;;10569547;28;20019;-50
2022/12/05 00:16:50;;;;;;;9.27;7.38;;;16.20;61.40;;;;;;10577596;28;20102;-51
2022/12/05 00:21:51;;;;;;;10.38;8.05;;;16.20;61.10;;;;;;10563828;27;20023;-51
2022/12/05 00:26:51;;;;;;;10.80;7.68;;;16.20;61.10;;;;;;10547170;28;20093;-50
2022/12/05 00:31:52;;;;;;;9.02;6.93;;;16.20;61.00;;;;;;10535752;28;20024;-50
2022/12/05 00:36:53;;;;;;;9.88;7.50;;;16.20;61.10;;;;;;10562355;28;20039;-52
2022/12/05 00:41:53;;;;;;;10.43;7.38;;;16.20;61.10;;;;;;10575361;28;20066;-51
2022/12/05 00:46:54;;;;;;;9.68;7.85;;;16.20;61.20;;;;;;10533864;28;20139;-50
2022/12/05 00:51:55;;;;;;;10.07;7.75;;;16.10;61.20;;;;;;10533977;28;20039;-50
2022/12/05 00:56:55;;;;;;;10.40;7.53;;;16.10;61.90;;;;;;10533880;28;20028;-51
2022/12/05 01:01:56;;;;;;;10.43;7.65;;;16.10;61.30;;;;;;10540231;28;20123;-52
2022/12/05 01:06:58;;;;;;;9.23;6.93;;;16.10;61.30;;;;;;10540431;28;20429;-53
2022/12/05 01:11:59;;;;;;;9.27;6.68;;;16.10;61.40;;;;;;10532018;28;20069;-51
2022/12/05 01:16:59;;;;;;;10.43;8.07;;;16.10;61.40;;;;;;10533151;28;20081;-50
2022/12/05 01:22:00;;;;;;;9.60;7.35;;;16.10;61.40;;;;;;10555146;27;20027;-50
2022/12/05 01:27:01;;;;;;;10.40;8.10;;;16.10;61.40;;;;;;10543553;28;20042;-49
2022/12/05 01:32:02;;;;;;;9.68;7.57;;;16.10;61.30;;;;;;10544948;28;20145;-51
2022/12/05 01:37:03;;;;;;;8.75;7.53;;;16.10;61.20;;;;;;10557105;28;20024;-52
2022/12/05 01:42:04;;;;;;;10.15;8.23;;;16.10;61.30;;;;;;10531965;28;20039;-48
2022/12/05 01:47:06;;;;;;;10.30;8.10;;;16.10;61.30;;;;;;10530317;28;20059;-51
2022/12/05 01:52:16;;;;;;;9.90;7.10;;;16.10;61.10;;;;;;10529925;28;20023;-51
2022/12/05 01:57:17;;;;;;;9.43;7.55;;;16.20;60.90;;;;;;10527650;28;20101;-53
2022/12/05 02:02:18;;;;;;;9.45;6.88;;;16.20;60.80;;;;;;10543919;28;20604;-50
2022/12/05 02:07:19;;;;;;;9.70;6.97;;;16.20;60.90;;;;;;10529643;28;20054;-50
2022/12/05 02:12:21;;;;;;;8.45;7.07;;;16.20;61.00;;;;;;10530884;28;20095;-51
2022/12/05 02:17:41;;;;;;;7.93;6.40;;;16.20;61.00;;;;;;10570458;28;20062;-51
2022/12/05 02:23:09;;;;;;;9.30;7.03;;;16.20;61.00;;;;;;10537260;27;20513;-51
2022/12/05 02:28:55;;;;;;;11.50;8.60;;;16.20;61.10;;;;;;10530541;28;20059;-50
2022/12/05 02:34:14;;;;;;;9.70;7.15;;;16.20;61.00;;;;;;10559722;28;20027;-51
2022/12/05 02:39:20;;;;;;;10.20;7.22;;;16.20;61.00;;;;;;10571092;28;20020;-51
2022/12/05 02:44:41;;;;;;;9.85;7.55;;;16.20;61.00;;;;;;10553945;28;20068;-51
2022/12/05 02:49:43;;;;;;;9.52;6.93;;;16.20;60.90;;;;;;10559526;28;20040;-49
2022/12/05 02:54:48;;;;;;;8.95;7.07;;;16.20;61.00;;;;;;10528667;28;20033;-56
2022/12/05 02:59:49;;;;;;;8.20;6.25;;;16.10;61.00;;;;;;10529712;28;20112;-51
2022/12/05 03:04:50;;;;;;;8.18;6.07;;;16.20;61.00;;;;;;10537082;28;20490;-50
2022/12/05 03:09:59;;;;;;;8.77;7.05;;;16.10;61.10;;;;;;10551849;28;20024;-50
2022/12/05 03:15:08;;;;;;;;;;;16.10;61.10;;;;;;10550647;28;20499;-48
2022/12/05 03:20:16;;;;;;;10.82;6.93;;;16.10;61.00;;;;;;10580640;27;19921;-52
2022/12/05 03:25:19;;;;;;;8.15;6.68;;;16.10;61.00;;;;;;10543498;27;20099;-52
2022/12/05 03:30:22;;;;;;;8.95;6.45;;;16.10;61.00;;;;;;10536323;28;20104;-51
2022/12/05 03:35:48;;;;;;;10.55;7.03;;;16.10;61.10;;;;;;10564589;28;20354;-51
2022/12/05 03:40:54;;;;;;;8.45;6.32;;;16.10;61.10;;;;;;10594828;27;20058;-51
2022/12/05 03:46:28;;;;;;;9.63;6.95;;;16.10;61.10;;;;;;10569354;28;20044;-50
2022/12/05 03:51:38;;;;;;;8.02;6.38;;;16.10;61.20;;;;;;10577983;28;20354;-51
2022/12/05 03:56:53;;;;;;;8.38;6.45;;;16.10;61.20;;;;;;10535028;28;20020;-51
2022/12/05 04:01:56;;;;;;;9.10;6.53;;;16.10;61.10;;;;;;10540451;28;20027;-52
2022/12/05 04:07:01;;;;;;;8.80;7.07;;;16.20;61.10;;;;;;10563338;28;20110;-50
2022/12/05 04:12:17;;;;;;;8.07;6.50;;;16.10;61.10;;;;;;10553249;28;20057;-51
2022/12/05 04:17:56;;;;;;;10.13;7.38;;;16.10;61.10;;;;;;10533834;28;20016;-49
2022/12/05 04:22:58;;;;;;;9.43;7.32;;;16.10;61.10;;;;;;10573916;27;20063;-49
2022/12/05 04:28:27;;;;;;;9.65;6.88;;;16.10;61.10;;;;;;10568009;28;20613;-51
2022/12/05 04:33:49;;;;;;;7.28;5.88;;;16.10;61.20;;;;;;10561904;28;20031;-47
2022/12/05 04:39:01;;;;;;;7.55;6.55;;;16.10;61.10;;;;;;10534975;28;20016;-47
2022/12/05 04:44:07;;;;;;;7.93;6.20;;;16.10;61.20;;;;;;10532971;28;20051;-49
2022/12/05 04:49:14;;;;;;;8.38;6.90;;;16.10;61.10;;;;;;10516576;28;20024;-50
2022/12/05 04:54:30;;;;;;;9.38;6.07;;;16.10;61.10;;;;;;10532426;28;20099;-47
2022/12/05 04:59:31;;;;;;;8.25;5.90;;;16.10;61.20;;;;;;10539137;28;20106;-48
2022/12/05 05:04:38;;;;;;;7.00;5.90;;;16.10;61.10;;;;;;10511565;28;20040;-51
2022/12/05 05:09:39;;;;;;;7.90;6.20;;;16.10;61.10;;;;;;10528510;28;20016;-46
2022/12/05 05:14:40;;;;;;;8.45;6.35;;;16.10;61.20;;;;;;10529117;28;20074;-49
2022/12/05 05:19:41;;;;;;;7.65;5.90;;;16.10;61.10;;;;;;10516522;27;20046;-50
2022/12/05 05:24:41;;;;;;;7.90;6.38;;;16.20;61.20;;;;;;10563978;27;20055;-49
2022/12/05 05:29:42;;;;;;;6.72;5.20;;;16.10;61.10;;;;;;10555612;28;20076;-49
2022/12/05 05:34:43;;;;;;;7.22;5.75;;;16.10;61.20;;;;;;10563147;28;20114;-50
2022/12/05 05:39:43;;;;;;;8.18;6.43;;;16.10;61.20;;;;;;10543780;28;20016;-47
2022/12/05 05:44:44;;;;;;;6.78;5.60;;;16.10;61.30;;;;;;10539287;28;20662;-49
2022/12/05 05:49:45;;;;;;;9.27;8.07;;;16.10;61.30;;;;;;10534946;28;20055;-49
2022/12/05 05:54:45;;;;;;;9.20;7.30;;;16.10;61.60;;;;;;10563882;28;20044;-53
2022/12/05 05:59:46;;;;;;;11.40;8.43;;;16.30;61.70;;;;;;10551045;28;20094;-51
2022/12/05 06:04:47;;;;;;;14.02;10.27;;;16.30;62.20;;;;;;10555871;28;20119;-48
2022/12/05 06:09:47;;;;;;;13.98;9.85;;;16.30;62.60;;;;;;10551058;28;20103;-47
2022/12/05 06:14:49;;;;;;;17.52;9.25;;;16.40;63.00;;;;;;10540035;28;20523;-54
2022/12/05 06:19:50;;;;;;;19.10;10.05;;;16.50;63.80;;;;;;10529323;28;20149;-52
2022/12/05 06:24:51;;;;;;;17.55;8.93;;;16.60;63.60;;;;;;10542616;28;20441;-52
2022/12/05 06:29:52;;;;;;;19.85;9.45;;;16.50;64.80;;;;;;10547025;28;20159;-52
2022/12/05 06:34:52;;;;;;;14.60;9.60;;;16.60;64.80;;;;;;10542511;28;20110;-55
2022/12/05 06:39:53;;;;;;;15.30;9.15;;;16.50;64.60;;;;;;10550934;28;20479;-51
2022/12/05 06:44:53;;;;;;;12.90;9.00;;;16.50;64.90;;;;;;10544557;28;20083;-50
2022/12/05 06:49:55;;;;;;;14.18;9.35;;;16.30;65.00;;;;;;10543659;28;20475;-52
2022/12/05 06:54:56;;;;;;;12.45;8.93;;;16.30;65.50;;;;;;10531652;28;20099;-51
2022/12/05 07:05:16;;;;;;;12.15;8.23;;;16.10;66.10;;;;;;10538342;28;20040;-49
2022/12/05 07:10:17;;;;;;;16.45;9.13;;;16.10;66.50;;;;;;10533408;28;20021;-53
2022/12/05 07:15:17;;;;;;;16.55;10.73;;;16.00;65.90;;;;;;10529142;28;20045;-53
2022/12/05 07:20:18;;;;;;;13.07;8.75;;;15.90;65.90;;;;;;10552574;28;20126;-52
2022/12/05 07:25:21;;;;;;;12.57;7.60;;;15.80;65.40;;;;;;10532311;28;20035;-52
2022/12/05 07:30:21;;;;;;;13.48;9.15;;;15.80;65.10;;;;;;10524464;28;20012;-50
2022/12/05 07:35:22;;;;;;;15.20;9.85;;;15.80;64.90;;;;;;10568419;28;20039;-49
2022/12/05 07:40:23;;;;;;;12.70;9.05;;;15.80;64.80;;;;;;10552696;28;20028;-51
2022/12/05 07:45:24;;;;;;;9.00;7.30;;;15.80;64.50;;;;;;10552448;28;20121;-51
2022/12/05 07:50:24;;;;;;;12.30;8.52;;;15.90;64.20;;;;;;10550258;27;20550;-47
2022/12/05 07:55:25;;;;;;;11.98;7.80;;;16.00;63.80;;;;;;10554343;28;20134;-50
2022/12/05 08:00:26;;;;;;;10.50;7.18;;;16.00;63.60;;;;;;10550772;28;20059;-53
2022/12/05 08:05:26;;;;;;;8.30;7.13;;;16.10;63.40;;;;;;10553575;28;20028;-49
2022/12/05 08:10:27;;;;;;;9.05;7.03;;;16.00;63.40;;;;;;10548154;28;20062;-49
2022/12/05 08:15:28;;;;;;;14.10;6.85;;;16.00;63.40;;;;;;10548529;28;20012;-47
2022/12/05 08:20:29;;;;;;;12.68;7.75;;;16.00;63.30;;;;;;10561390;27;20019;-48
2022/12/05 08:25:30;;;;;;;10.82;7.20;;;16.00;63.20;;;;;;10533402;27;20123;-52
2022/12/05 08:30:32;;;;;;;12.77;7.57;;;16.10;63.80;;;;;;10556396;27;20103;-55
2022/12/05 08:35:36;;;;;;;8.82;6.68;;;16.10;64.20;;;;;;10561460;28;20024;-51
2022/12/05 08:40:37;;;;;;;19.00;6.75;;;16.10;63.80;;;;;;10546659;28;20453;-53
2022/12/05 08:45:37;;;;;;;12.23;6.20;;;16.00;64.00;;;;;;10554305;28;20038;-52
2022/12/05 08:50:38;;;;;;;9.77;6.03;;;16.00;63.90;;;;;;10531880;28;20059;-53
2022/12/05 08:55:39;;;;;;;10.70;6.65;;;16.10;63.60;;;;;;10530430;28;20040;-52
2022/12/05 09:00:40;;;;;;;10.18;6.57;;;16.10;63.70;;;;;;10547583;28;20035;-53
2022/12/05 09:05:41;;;;;;;11.27;6.90;;;16.00;63.80;;;;;;10543897;28;20032;-53
2022/12/05 09:10:42;;;;;;;10.35;6.13;;;16.00;64.20;;;;;;10532170;28;20020;-51
2022/12/05 09:15:42;;;;;;;11.75;6.10;;;15.80;64.20;;;;;;10532109;28;20024;-52
2022/12/05 09:20:43;;;;;;;8.45;5.65;;;15.90;64.50;;;;;;10553021;27;20047;-50
2022/12/05 09:25:44;;;;;;;9.80;5.60;;;16.00;63.90;;;;;;10530654;28;20168;-51
2022/12/05 09:30:53;;;;;;;9.98;5.80;;;16.00;63.70;;;;;;10530713;28;20044;-50
2022/12/05 09:35:54;;;;;;;10.27;6.97;;;16.00;63.70;;;;;;10549512;28;20485;-50
2022/12/05 09:42:03;;;;;;;9.00;6.55;;;16.10;63.50;;;;;;10557426;28;20050;-51
2022/12/05 09:46:55;;;;;;;11.05;6.60;;;16.10;63.30;;;;;;10570183;28;20036;-53
2022/12/05 09:51:57;;;;;;;10.00;5.30;;;16.10;63.50;;;;;;10528281;28;20020;-52
2022/12/05 09:56:58;;;;;;;9.95;4.82;;;16.10;63.30;;;;;;10542560;28;20493;-49
2022/12/05 10:02:29;;;;;;;10.32;5.78;;;16.10;63.40;;;;;;10524462;28;20016;-50
2022/12/05 10:07:50;;;;;;;12.60;6.18;;;16.10;63.60;;;;;;10556074;28;20450;-53
2022/12/05 10:13:20;;;;;;;10.52;6.05;;;16.00;63.90;;;;;;10528810;27;20048;-53
2022/12/05 10:18:43;;;;;;;10.40;6.00;;;15.90;64.00;;;;;;10517949;28;20020;-52
2022/12/05 10:24:02;;;;;;;14.40;6.70;;;15.90;65.20;;;;;;10550445;27;20043;-53
2022/12/05 10:29:36;;;;;;;15.77;6.18;;;15.90;65.20;;;;;;10532557;28;20023;-52
2022/12/05 10:34:41;;;;;;;8.15;6.18;;;15.80;65.30;;;;;;10536356;28;20060;-54
2022/12/05 10:39:43;;;;;;;10.85;6.20;;;15.90;65.50;;;;;;10531831;28;20042;-53
2022/12/05 10:44:44;;;;;;;14.45;6.15;;;16.00;65.20;;;;;;10527422;28;20055;-52
2022/12/05 10:49:46;;;;;;;9.63;6.07;;;15.90;65.10;;;;;;10526216;28;20031;-51
2022/12/05 10:54:54;;;;;;;8.50;5.60;;;15.90;65.10;;;;;;10530855;28;20008;-53
2022/12/05 10:59:56;;;;;;;10.20;5.55;;;16.00;64.90;;;;;;10525880;28;20573;-52
2022/12/05 11:05:02;;;;;;;9.27;5.88;;;15.90;65.00;;;;;;10543145;28;20020;-53
2022/12/05 11:10:24;;;;;;;13.82;6.47;;;15.90;65.20;;;;;;10533791;28;20032;-51
2022/12/05 11:15:29;;;;;;;15.25;6.53;;;16.00;65.00;;;;;;10535405;28;20024;-53
2022/12/05 11:20:37;;;;;;;10.93;6.22;;;16.00;64.80;;;;;;10575647;28;20086;-53
2022/12/05 11:25:37;;;;;;;10.50;6.20;;;15.90;64.80;;;;;;10545554;28;20062;-50
2022/12/05 11:30:38;;;;;;;9.55;6.07;;;16.00;64.70;;;;;;10534804;28;20521;-52
2022/12/05 11:35:39;;;;;;;8.55;6.10;;;15.90;64.90;;;;;;10551203;28;20047;-53
2022/12/05 11:41:15;;;;;;;10.85;6.47;;;15.90;65.20;;;;;;10561114;28;20072;-50
2022/12/05 11:46:59;;;;;;;13.15;6.22;;;16.00;65.30;;;;;;10576039;28;20408;-53
2022/12/05 11:52:23;;;;;;;8.43;5.70;;;16.00;64.60;;;;;;10515964;28;20032;-53
2022/12/05 11:57:58;;;;;;;12.15;6.45;;;15.90;64.20;;;;;;10532408;28;20080;-53
2022/12/05 12:03:39;;;;;;;12.02;6.85;;;16.00;64.10;;;;;;10561758;28;20027;-53
2022/12/05 12:09:07;;;;;;;9.25;5.80;;;16.00;64.60;;;;;;10571444;28;20039;-53
2022/12/05 12:14:24;;;;;;;11.05;6.32;;;15.90;64.20;;;;;;10573413;28;20012;-53
2022/12/05 12:19:37;;;;;;;12.45;7.15;;;15.90;64.30;;;;;;10562889;27;20113;-50
2022/12/05 12:25:16;;;;;;;7.90;5.03;;;16.00;64.40;;;;;;10553089;27;20054;-54
2022/12/05 12:30:36;;;;;;;8.20;4.88;;;16.00;63.90;;;;;;10543390;28;20047;-54
2022/12/05 12:36:24;;;;;;;7.00;4.93;;;16.00;63.80;;;;;;10554720;28;20099;-53
2022/12/05 12:41:51;;;;;;;6.65;5.15;;;16.00;63.70;;;;;;10534512;28;20039;-51
2022/12/05 12:47:10;;;;;;;8.00;5.50;;;16.00;63.70;;;;;;10552960;28;20067;-54
2022/12/05 12:52:24;;;;;;;7.90;5.40;;;15.90;64.50;;;;;;10558522;27;20076;-52
2022/12/05 12:58:18;;;;;;;8.52;5.70;;;16.00;64.50;;;;;;10558481;28;20043;-53
2022/12/05 13:03:29;;;;;;;9.35;5.93;;;16.00;64.30;;;;;;10490719;28;20564;-54
2022/12/05 13:08:47;;;;;;;6.95;5.57;;;16.00;63.80;;;;;;10542968;28;20028;-52
2022/12/05 13:13:53;;;;;;;8.25;5.78;;;16.10;63.50;;;;;;10566448;27;20558;-51
2022/12/05 13:18:55;;;;;;;8.30;5.43;;;16.00;64.20;;;;;;10544481;28;20421;-54
2022/12/05 13:24:02;;;;;;;9.85;5.30;;;16.00;65.00;;;;;;10568359;27;20530;-51
2022/12/05 13:29:03;;;;;;;9.80;5.38;;;16.10;65.20;;;;;;10556864;28;20039;-54
2022/12/05 13:34:04;;;;;;;8.15;5.05;;;16.10;64.90;;;;;;10572340;27;20022;-48
2022/12/05 13:45:16;;;;;;;11.07;4.68;;;16.10;65.20;;;;;;10568590;28;20051;-48
2022/12/05 13:50:33;;;;;;;9.90;4.90;;;16.00;65.00;;;;;;10540698;28;20200;-52
2022/12/05 13:56:02;;;;;;;12.55;4.65;;;16.10;64.90;;;;;;10528052;28;20020;-49
2022/12/05 14:01:25;;;;;;;12.45;5.63;;;16.00;64.90;;;;;;10527776;28;20031;-53
2022/12/05 14:06:36;;;;;;;13.00;5.25;;;15.90;65.40;;;;;;10559563;28;20106;-52
2022/12/05 14:11:37;;;;;;;18.08;8.48;;;15.90;66.30;;;;;;10544063;28;20027;-51
2022/12/05 14:16:43;;;;;;;17.92;5.80;;;15.90;66.40;;;;;;10540223;28;20102;-54
2022/12/05 14:22:04;;;;;;;18.63;4.57;;;15.80;66.40;;;;;;10565954;27;20081;-52
2022/12/05 14:27:29;;;;;;;14.38;5.43;;;15.80;66.30;;;;;;10554428;28;20040;-48
2022/12/05 14:32:39;;;;;;;11.93;5.47;;;15.80;66.10;;;;;;10529443;28;20483;-52
2022/12/05 14:37:57;;;;;;;11.40;4.78;;;15.80;65.80;;;;;;10561911;28;20027;-48
2022/12/05 14:43:27;;;;;;;16.65;5.32;;;15.90;65.60;;;;;;10555231;28;20347;-51
2022/12/05 14:48:39;;;;;;;14.48;5.22;;;15.90;65.50;;;;;;10554830;28;20092;-50
2022/12/05 14:53:41;;;;;;;21.42;4.22;;;15.90;65.30;;;;;;10553490;28;20497;-48
2022/12/05 14:58:54;;;;;;;12.60;4.53;;;16.00;65.10;;;;;;10545922;27;20668;-53
2022/12/05 15:04:13;;;;;;;10.52;3.88;;;16.00;65.00;;;;;;10539157;28;20039;-49
2022/12/05 15:10:20;;;;;;;8.43;3.57;;;16.00;64.70;;;;;;10553858;28;20032;-48
2022/12/05 15:15:30;;;;;;;9.32;4.10;;;16.00;64.70;;;;;;10513336;28;20028;-49
2022/12/05 15:20:53;;;;;;;6.75;3.97;;;15.90;64.80;;;;;;10550937;28;20016;-49
2022/12/05 15:25:53;;;;;;;11.43;3.45;;;15.90;64.80;;;;;;10546178;28;20535;-51
2022/12/05 15:30:55;;;;;;;7.78;3.67;;;15.90;64.60;;;;;;10567130;28;20072;-51
2022/12/05 15:35:58;;;;;;;8.55;3.30;;;16.00;64.10;;;;;;10566536;28;20044;-49
2022/12/05 15:40:59;;;;;;;7.55;4.03;;;16.00;63.90;;;;;;10529561;28;20032;-48
2022/12/05 15:46:07;;;;;;;5.72;3.17;;;16.00;63.90;;;;;;10524907;28;20079;-49
2022/12/05 15:51:07;;;;;;;6.68;3.22;;;16.10;63.60;;;;;;10562617;28;20019;-52
2022/12/05 15:56:16;;;;;;;10.65;3.30;;;16.10;63.40;;;;;;10542318;28;20054;-51
2022/12/05 16:01:25;;;;;;;11.15;3.30;;;16.10;63.80;;;;;;10529020;28;20485;-49
2022/12/05 16:06:44;;;;;;;8.70;3.45;;;16.20;64.00;;;;;;10528462;28;20428;-52
2022/12/05 16:12:01;;;;;;;18.33;5.60;;;16.20;64.30;;;;;;10549812;28;20481;-49
2022/12/05 16:17:03;;;;;;;8.82;3.75;;;16.20;65.80;;;;;;10558373;28;20528;-47
2022/12/05 16:22:20;;;;;;;12.88;4.38;;;16.30;66.30;;;;;;10550854;28;20047;-49
2022/12/05 16:27:26;;;;;;;9.32;4.13;;;16.40;65.00;;;;;;10546574;28;20530;-48
2022/12/05 16:32:27;;;;;;;16.95;5.97;;;16.30;64.40;;;;;;10530004;28;20023;-50
2022/12/05 16:37:29;;;;;;;38.10;21.88;;;16.20;64.10;;;;;;10564151;28;20020;-45
2022/12/05 16:42:30;;;;;;;34.45;16.85;;;16.30;63.80;;;;;;10539969;27;20028;-48
2022/12/05 16:47:42;;;;;;;22.15;11.85;;;16.50;65.40;;;;;;10556971;28;20040;-50
2022/12/05 16:52:43;;;;;;;19.73;10.75;;;16.60;65.60;;;;;;10574634;28;20047;-48
2022/12/05 16:57:44;;;;;;;23.90;10.15;;;16.70;66.00;;;;;;10572149;28;20027;-50
2022/12/05 17:02:45;;;;;;;22.65;11.63;;;16.80;65.30;;;;;;10571920;28;20048;-49
2022/12/05 17:07:46;;;;;;;18.50;10.25;;;16.80;65.30;;;;;;10555539;28;20035;-46
2022/12/05 17:12:47;;;;;;;19.70;9.27;;;16.50;65.20;;;;;;10552798;28;20062;-50
2022/12/05 17:17:47;;;;;;;19.95;8.80;;;16.40;65.30;;;;;;10545812;28;20035;-48
2022/12/05 17:22:48;;;;;;;22.70;8.50;;;16.40;65.50;;;;;;10563955;27;20028;-48
2022/12/05 17:27:49;;;;;;;17.27;8.93;;;16.30;65.50;;;;;;10551671;28;20410;-48
2022/12/05 17:32:49;;;;;;;18.70;8.52;;;16.20;65.80;;;;;;10551736;28;20443;-49
2022/12/05 17:37:50;;;;;;;14.05;7.20;;;16.10;66.00;;;;;;10561409;28;20047;-49
2022/12/05 17:42:51;;;;;;;17.33;8.68;;;16.00;66.10;;;;;;10545015;28;20047;-47
2022/12/05 17:47:51;;;;;;;17.13;7.93;;;15.90;66.00;;;;;;10541637;28;20516;-49
2022/12/05 17:52:56;;;;;;;20.85;7.55;;;16.00;66.60;;;;;;10531306;28;20069;-50
2022/12/05 17:57:57;;;;;;;18.23;7.95;;;16.00;67.20;;;;;;10530686;28;20017;-52
2022/12/05 18:02:57;;;;;;;23.70;8.23;;;16.00;67.70;;;;;;10531522;28;20099;-49
2022/12/05 18:07:58;;;;;;;38.63;7.53;;;16.00;68.10;;;;;;10531278;28;20116;-51
2022/12/05 18:12:59;;;;;;;18.17;7.05;;;16.10;67.90;;;;;;10563153;28;20107;-49
2022/12/05 18:18:02;;;;;;;21.38;6.90;;;16.10;67.90;;;;;;10562407;28;20032;-51
2022/12/05 18:23:02;;;;;;;17.77;6.30;;;16.00;67.50;;;;;;10558971;27;20024;-50
2022/12/05 18:28:03;;;;;;;17.95;5.78;;;15.80;67.40;;;;;;10529096;28;20526;-52
2022/12/05 18:33:04;;;;;;;13.95;5.60;;;15.70;67.30;;;;;;10533339;28;20475;-53
2022/12/05 18:38:11;;;;;;;14.15;5.13;;;15.60;67.30;;;;;;10558493;28;20137;-47
2022/12/05 18:43:12;;;;;;;8.48;5.90;;;15.70;67.20;;;;;;10530224;28;20107;-48
2022/12/05 18:48:13;;;;;;;12.82;5.50;;;15.70;67.00;;;;;;10538132;28;20040;-50
2022/12/05 18:53:14;;;;;;;11.50;5.10;;;15.70;66.60;;;;;;10543528;28;20048;-50
2022/12/05 18:58:15;;;;;;;11.98;5.05;;;15.80;66.20;;;;;;10548927;28;20158;-49
2022/12/05 19:03:15;;;;;;;11.43;4.88;;;16.00;65.80;;;;;;10546883;28;20104;-50
2022/12/05 19:08:16;;;;;;;9.20;3.75;;;16.00;65.70;;;;;;10531044;27;20087;-49
2022/12/05 19:13:18;;;;;;;19.02;6.15;;;16.10;65.30;;;;;;10480167;28;20057;-49
2022/12/05 19:18:19;;;;;;;8.82;4.60;;;16.10;65.00;;;;;;10473136;28;20126;-52
2022/12/05 19:23:20;;;;;;;8.98;4.20;;;16.00;65.00;;;;;;10483066;28;20025;-51
2022/12/05 19:28:20;;;;;;;13.30;4.15;;;16.00;64.90;;;;;;10485969;28;20025;-53
2022/12/05 19:33:21;;;;;;;9.80;5.55;;;16.10;64.80;;;;;;10446567;28;20017;-52
2022/12/05 19:38:21;;;;;;;7.68;3.78;;;16.10;64.70;;;;;;10478928;28;20566;-52
2022/12/05 19:43:22;;;;;;;9.45;4.15;;;16.10;64.40;;;;;;10474340;28;20116;-52
2022/12/05 19:48:24;;;;;;;10.30;4.63;;;16.10;64.50;;;;;;10476441;28;20063;-52
2022/12/05 19:53:29;;;;;;;7.68;3.42;;;16.10;64.40;;;;;;10470423;28;20025;-51
2022/12/05 19:58:31;;;;;;;6.03;4.28;;;16.10;64.30;;;;;;10493358;28;20025;-53
2022/12/05 20:03:32;;;;;;;9.73;3.72;;;16.00;64.40;;;;;;10471457;28;20489;-53
2022/12/05 20:08:34;;;;;;;8.25;3.85;;;16.10;64.20;;;;;;10471502;28;20043;-52
2022/12/05 20:13:36;;;;;;;9.63;3.65;;;16.10;64.20;;;;;;10462529;28;20021;-52
2022/12/05 20:18:39;;;;;;;6.72;3.78;;;16.10;64.00;;;;;;10453192;28;20408;-52
2022/12/05 20:23:40;;;;;;;6.45;3.25;;;16.10;64.00;;;;;;10443800;28;20096;-52
2022/12/05 20:28:41;;;;;;;6.43;3.20;;;16.10;63.90;;;;;;10423795;28;20032;-53
2022/12/05 20:33:42;;;;;;;7.20;3.25;;;16.10;63.90;;;;;;10412250;28;20029;-51
2022/12/05 20:38:45;;;;;;;6.25;3.08;;;16.00;64.00;;;;;;10449693;28;20017;-55
2022/12/05 20:43:50;;;;;;;5.40;3.00;;;16.10;63.90;;;;;;10419726;28;20112;-48
2022/12/05 20:48:52;;;;;;;8.00;3.10;;;16.10;63.90;;;;;;10423226;28;20033;-53
2022/12/05 20:53:54;;;;;;;5.05;2.85;;;16.00;63.90;;;;;;10431961;28;20099;-52
2022/12/05 20:58:59;;;;;;;5.95;3.13;;;16.10;63.80;;;;;;10424514;28;20017;-52
2022/12/05 21:04:01;;;;;;;3.78;2.20;;;16.00;63.80;;;;;;10431702;28;20096;-52
2022/12/05 21:09:04;;;;;;;4.63;2.15;;;16.10;63.70;;;;;;10439500;28;20029;-52
2022/12/05 21:14:05;;;;;;;6.38;2.72;;;16.10;63.70;;;;;;10422361;28;20022;-50
2022/12/05 21:19:07;;;;;;;4.05;2.47;;;16.10;64.10;;;;;;10411991;28;20116;-52
2022/12/05 21:24:09;;;;;;;5.18;2.53;;;16.10;63.60;;;;;;10452672;28;20059;-52
2022/12/05 21:29:09;;;;;;;5.07;2.25;;;16.10;63.60;;;;;;10431443;28;20433;-52
2022/12/05 21:34:19;;;;;;;4.15;2.30;;;16.10;64.10;;;;;;10438753;28;20048;-50
2022/12/05 21:39:19;;;;;;;3.53;1.92;;;16.10;63.50;;;;;;10448836;28;20049;-54
2022/12/05 21:44:20;;;;;;;4.57;2.50;;;16.10;63.40;;;;;;10435401;28;20538;-53
2022/12/05 21:49:21;;;;;;;4.68;2.10;;;16.10;63.30;;;;;;10404297;28;20072;-54
2022/12/05 21:54:21;;;;;;;5.72;2.38;;;16.10;63.20;;;;;;10429253;28;20552;-52
2022/12/05 21:59:22;;;;;;;3.25;1.67;;;16.10;63.10;;;;;;10439836;28;20029;-53
2022/12/05 22:04:23;;;;;;;3.63;2.00;;;16.20;63.10;;;;;;10406977;28;20104;-49
2022/12/05 22:09:24;;;;;;;4.70;2.22;;;16.10;63.00;;;;;;10425790;28;20512;-50
2022/12/05 22:14:24;;;;;;;3.47;2.17;;;16.20;63.00;;;;;;10434384;28;20116;-49
2022/12/05 22:19:25;;;;;;;3.28;2.08;;;16.20;63.00;;;;;;10441502;28;20192;-55
2022/12/05 22:24:26;;;;;;;6.45;3.05;;;16.20;62.90;;;;;;10428072;28;20465;-53
2022/12/05 22:29:26;;;;;;;3.03;1.75;;;16.10;63.10;;;;;;10427643;28;20114;-54
2022/12/05 22:34:27;;;;;;;4.57;2.15;;;16.10;63.00;;;;;;10420407;28;20092;-52
2022/12/05 22:39:28;;;;;;;4.25;2.25;;;16.10;63.00;;;;;;10443717;28;20040;-52
2022/12/05 22:44:28;;;;;;;4.40;2.05;;;16.10;63.00;;;;;;10421818;28;20033;-52
2022/12/05 22:49:29;;;;;;;7.07;1.65;;;16.20;62.90;;;;;;10427711;28;20076;-52
2022/12/05 22:54:30;;;;;;;3.40;2.38;;;16.20;62.80;;;;;;10418476;28;20479;-52
2022/12/05 22:59:30;;;;;;;2.95;1.88;;;16.10;62.80;;;;;;10435517;28;20125;-49
2022/12/05 23:04:31;;;;;;;3.42;1.70;;;16.20;62.90;;;;;;10404381;28;20064;-50
2022/12/05 23:09:31;;;;;;;3.13;2.00;;;16.10;62.70;;;;;;10428107;28;20086;-50
2022/12/05 23:14:32;;;;;;;3.10;1.63;;;16.10;62.70;;;;;;10446223;28;20022;-51
2022/12/05 23:19:33;;;;;;;4.40;2.22;;;16.10;62.70;;;;;;10447904;28;20120;-48
2022/12/05 23:24:34;;;;;;;2.80;1.73;;;16.20;62.70;;;;;;10452829;28;20465;-52
2022/12/05 23:29:34;;;;;;;2.22;1.45;;;16.10;62.60;;;;;;10453379;28;20039;-53
2022/12/05 23:34:35;;;;;;;3.45;1.40;;;16.20;62.60;;;;;;10452530;28;20024;-52
2022/12/05 23:39:36;;;;;;;3.25;1.80;;;16.20;62.50;;;;;;10451205;28;20461;-48
2022/12/05 23:44:37;;;;;;;3.13;1.40;;;16.20;62.60;;;;;;10434117;28;20056;-51
2022/12/05 23:49:37;;;;;;;3.15;1.60;;;16.20;62.60;;;;;;10425686;28;20043;-53
2022/12/05 23:54:41;;;;;;;2.95;1.42;;;16.20;62.50;;;;;;10446216;28;20528;-54
2022/12/05 23:59:42;;;;;;;2.20;1.20;;;16.20;62.60;;;;;;10451496;28;20036;-52
